Terminal Aerodrome Forecast
Issued by NWS

Home | Current Version | Previous Version | Text Only | Print | Product List | Glossary On
Versions: 1 2 3 4 5 6 7 8 9 10 11 12 13 14 15 16 17 18 19 20 21 22 23 24 25 26 27
000
FTUS44 KOUN 292323
TAFHBR
TAF
KHBR 292323Z 3000/3024 18010KT P6SM BKN050
     FM300800 15010KT 5SM -RA SCT020 OVC040
      TEMPO 3010/3014 2SM -RA BR OVC020
     FM301600 16013KT 4SM -RA BKN025
      TEMPO 3016/3020 2SM -TSRA BKN015CB=

USA.gov is the U.S. government's official web portal to all federal, state and local government web resources and services.